sensor_id;sensor_type;location;lat;lon;timestamp;temperature;humidity
16032;DHT22;8120;48.308;8.914;2023-04-25T00:02:22;6.20;72.90
16032;DHT22;8120;48.308;8.914;2023-04-25T00:04:51;6.20;72.90
16032;DHT22;8120;48.308;8.914;2023-04-25T00:07:19;6.20;73.00
16032;DHT22;8120;48.308;8.914;2023-04-25T00:09:47;6.20;73.50
16032;DHT22;8120;48.308;8.914;2023-04-25T00:12:15;6.20;73.60
16032;DHT22;8120;48.308;8.914;2023-04-25T00:14:43;6.20;73.40
16032;DHT22;8120;48.308;8.914;2023-04-25T00:17:12;6.30;73.30
16032;DHT22;8120;48.308;8.914;2023-04-25T00:19:39;6.30;73.30
16032;DHT22;8120;48.308;8.914;2023-04-25T00:22:09;6.40;72.70
16032;DHT22;8120;48.308;8.914;2023-04-25T00:24:37;6.40;72.60
16032;DHT22;8120;48.308;8.914;2023-04-25T00:27:05;6.50;72.60
16032;DHT22;8120;48.308;8.914;2023-04-25T00:29:33;6.50;72.20
16032;DHT22;8120;48.308;8.914;2023-04-25T00:32:01;6.50;72.50
16032;DHT22;8120;48.308;8.914;2023-04-25T00:34:29;6.40;73.10
16032;DHT22;8120;48.308;8.914;2023-04-25T00:36:56;6.40;72.90
16032;DHT22;8120;48.308;8.914;2023-04-25T00:39:26;6.40;72.40
16032;DHT22;8120;48.308;8.914;2023-04-25T00:41:54;6.40;72.20
16032;DHT22;8120;48.308;8.914;2023-04-25T00:44:22;6.40;72.50
16032;DHT22;8120;48.308;8.914;2023-04-25T00:46:52;6.30;72.80
16032;DHT22;8120;48.308;8.914;2023-04-25T00:49:20;6.30;72.70
16032;DHT22;8120;48.308;8.914;2023-04-25T00:51:48;6.20;72.70
16032;DHT22;8120;48.308;8.914;2023-04-25T00:54:16;6.20;72.40
16032;DHT22;8120;48.308;8.914;2023-04-25T00:56:45;6.20;72.70
16032;DHT22;8120;48.308;8.914;2023-04-25T00:59:14;6.20;72.90
16032;DHT22;8120;48.308;8.914;2023-04-25T01:01:43;6.10;72.80
16032;DHT22;8120;48.308;8.914;2023-04-25T01:04:11;6.10;72.90
16032;DHT22;8120;48.308;8.914;2023-04-25T01:06:40;6.00;72.90
16032;DHT22;8120;48.308;8.914;2023-04-25T01:09:09;6.10;73.10
16032;DHT22;8120;48.308;8.914;2023-04-25T01:11:37;6.00;73.20
16032;DHT22;8120;48.308;8.914;2023-04-25T01:14:08;6.00;73.30
16032;DHT22;8120;48.308;8.914;2023-04-25T01:16:36;5.90;73.10
16032;DHT22;8120;48.308;8.914;2023-04-25T01:19:09;5.90;73.40
16032;DHT22;8120;48.308;8.914;2023-04-25T01:21:39;5.80;75.30
16032;DHT22;8120;48.308;8.914;2023-04-25T01:24:07;5.60;75.80
16032;DHT22;8120;48.308;8.914;2023-04-25T01:26:36;5.70;75.50
16032;DHT22;8120;48.308;8.914;2023-04-25T01:29:04;5.70;76.00
16032;DHT22;8120;48.308;8.914;2023-04-25T01:31:32;5.70;76.50
16032;DHT22;8120;48.308;8.914;2023-04-25T01:34:00;5.70;76.30
16032;DHT22;8120;48.308;8.914;2023-04-25T01:36:28;5.70;78.10
16032;DHT22;8120;48.308;8.914;2023-04-25T01:38:58;5.60;78.30
16032;DHT22;8120;48.308;8.914;2023-04-25T01:41:26;5.50;79.00
16032;DHT22;8120;48.308;8.914;2023-04-25T01:43:54;5.40;79.80
16032;DHT22;8120;48.308;8.914;2023-04-25T01:46:22;5.40;80.30
16032;DHT22;8120;48.308;8.914;2023-04-25T01:48:50;5.30;80.40
16032;DHT22;8120;48.308;8.914;2023-04-25T01:51:19;5.20;81.20
16032;DHT22;8120;48.308;8.914;2023-04-25T01:53:47;5.20;81.60
16032;DHT22;8120;48.308;8.914;2023-04-25T01:56:17;5.20;82.20
16032;DHT22;8120;48.308;8.914;2023-04-25T01:58:45;5.20;82.50
16032;DHT22;8120;48.308;8.914;2023-04-25T02:01:13;5.20;82.80
16032;DHT22;8120;48.308;8.914;2023-04-25T02:03:41;5.20;82.80
16032;DHT22;8120;48.308;8.914;2023-04-25T02:06:09;5.10;82.80
16032;DHT22;8120;48.308;8.914;2023-04-25T02:08:37;5.10;83.00
16032;DHT22;8120;48.308;8.914;2023-04-25T02:11:05;5.10;83.00
16032;DHT22;8120;48.308;8.914;2023-04-25T02:13:35;5.10;82.70
16032;DHT22;8120;48.308;8.914;2023-04-25T02:16:03;5.00;83.50
16032;DHT22;8120;48.308;8.914;2023-04-25T02:18:31;5.00;83.60
16032;DHT22;8120;48.308;8.914;2023-04-25T02:21:00;5.00;83.50
16032;DHT22;8120;48.308;8.914;2023-04-25T02:23:29;5.10;83.90
16032;DHT22;8120;48.308;8.914;2023-04-25T02:25:57;5.10;83.70
16032;DHT22;8120;48.308;8.914;2023-04-25T02:28:25;5.10;83.50
16032;DHT22;8120;48.308;8.914;2023-04-25T02:30:54;5.10;83.50
16032;DHT22;8120;48.308;8.914;2023-04-25T02:33:23;5.20;83.70
16032;DHT22;8120;48.308;8.914;2023-04-25T02:35:51;5.20;83.20
16032;DHT22;8120;48.308;8.914;2023-04-25T02:38:19;5.20;82.70
16032;DHT22;8120;48.308;8.914;2023-04-25T02:40:47;5.20;82.60
16032;DHT22;8120;48.308;8.914;2023-04-25T02:43:15;5.10;82.40
16032;DHT22;8120;48.308;8.914;2023-04-25T02:45:43;5.00;83.90
16032;DHT22;8120;48.308;8.914;2023-04-25T02:48:12;4.80;84.70
16032;DHT22;8120;48.308;8.914;2023-04-25T02:50:40;4.70;85.10
16032;DHT22;8120;48.308;8.914;2023-04-25T02:53:08;4.50;85.80
16032;DHT22;8120;48.308;8.914;2023-04-25T02:55:36;4.40;85.70
16032;DHT22;8120;48.308;8.914;2023-04-25T02:58:04;4.40;85.10
16032;DHT22;8120;48.308;8.914;2023-04-25T03:00:32;4.40;83.90
16032;DHT22;8120;48.308;8.914;2023-04-25T03:03:05;4.30;84.00
16032;DHT22;8120;48.308;8.914;2023-04-25T03:05:40;4.30;83.60
16032;DHT22;8120;48.308;8.914;2023-04-25T03:08:08;4.30;83.80
16032;DHT22;8120;48.308;8.914;2023-04-25T03:10:36;4.30;83.50
16032;DHT22;8120;48.308;8.914;2023-04-25T03:13:04;4.40;83.40
16032;DHT22;8120;48.308;8.914;2023-04-25T03:15:32;4.40;82.70
16032;DHT22;8120;48.308;8.914;2023-04-25T03:18:00;4.50;82.80
16032;DHT22;8120;48.308;8.914;2023-04-25T03:20:28;4.50;83.00
16032;DHT22;8120;48.308;8.914;2023-04-25T03:22:57;4.50;83.20
16032;DHT22;8120;48.308;8.914;2023-04-25T03:25:25;4.50;82.90
16032;DHT22;8120;48.308;8.914;2023-04-25T03:27:53;4.50;83.00
16032;DHT22;8120;48.308;8.914;2023-04-25T03:30:22;4.50;83.10
16032;DHT22;8120;48.308;8.914;2023-04-25T03:32:49;4.50;83.20
16032;DHT22;8120;48.308;8.914;2023-04-25T03:35:17;4.40;83.30
16032;DHT22;8120;48.308;8.914;2023-04-25T03:37:45;4.40;83.20
16032;DHT22;8120;48.308;8.914;2023-04-25T03:40:15;4.40;83.30
16032;DHT22;8120;48.308;8.914;2023-04-25T03:42:43;4.40;83.20
16032;DHT22;8120;48.308;8.914;2023-04-25T03:45:11;4.40;83.40
16032;DHT22;8120;48.308;8.914;2023-04-25T03:47:39;4.40;83.20
16032;DHT22;8120;48.308;8.914;2023-04-25T03:50:07;4.40;83.20
16032;DHT22;8120;48.308;8.914;2023-04-25T03:52:35;4.30;83.50
16032;DHT22;8120;48.308;8.914;2023-04-25T03:55:04;4.30;83.70
16032;DHT22;8120;48.308;8.914;2023-04-25T03:57:33;4.30;83.60
16032;DHT22;8120;48.308;8.914;2023-04-25T04:00:02;4.30;83.60
16032;DHT22;8120;48.308;8.914;2023-04-25T04:02:31;4.30;83.90
16032;DHT22;8120;48.308;8.914;2023-04-25T04:05:00;4.30;83.90
16032;DHT22;8120;48.308;8.914;2023-04-25T04:07:28;4.30;83.70
16032;DHT22;8120;48.308;8.914;2023-04-25T04:09:56;4.30;83.80
16032;DHT22;8120;48.308;8.914;2023-04-25T04:12:24;4.30;84.10
16032;DHT22;8120;48.308;8.914;2023-04-25T04:14:53;4.30;84.20
16032;DHT22;8120;48.308;8.914;2023-04-25T04:17:21;4.20;84.20
16032;DHT22;8120;48.308;8.914;2023-04-25T04:19:48;4.20;84.30
16032;DHT22;8120;48.308;8.914;2023-04-25T04:22:17;4.20;84.40
16032;DHT22;8120;48.308;8.914;2023-04-25T04:24:44;4.20;84.30
16032;DHT22;8120;48.308;8.914;2023-04-25T04:27:14;4.20;83.70
16032;DHT22;8120;48.308;8.914;2023-04-25T04:29:44;4.20;83.60
16032;DHT22;8120;48.308;8.914;2023-04-25T04:32:14;4.20;83.50
16032;DHT22;8120;48.308;8.914;2023-04-25T04:34:41;4.20;83.30
16032;DHT22;8120;48.308;8.914;2023-04-25T04:37:09;4.20;82.90
16032;DHT22;8120;48.308;8.914;2023-04-25T04:39:39;4.20;83.00
16032;DHT22;8120;48.308;8.914;2023-04-25T04:42:07;4.30;82.70
16032;DHT22;8120;48.308;8.914;2023-04-25T04:44:35;4.40;82.50
16032;DHT22;8120;48.308;8.914;2023-04-25T04:47:03;4.50;82.10
16032;DHT22;8120;48.308;8.914;2023-04-25T04:49:34;4.70;81.20
16032;DHT22;8120;48.308;8.914;2023-04-25T04:52:01;4.80;81.10
16032;DHT22;8120;48.308;8.914;2023-04-25T04:54:29;4.90;80.90
16032;DHT22;8120;48.308;8.914;2023-04-25T04:56:57;5.10;82.50
16032;DHT22;8120;48.308;8.914;2023-04-25T04:59:25;5.20;81.10
16032;DHT22;8120;48.308;8.914;2023-04-25T05:01:53;5.20;81.90
16032;DHT22;8120;48.308;8.914;2023-04-25T05:04:21;5.00;83.30
16032;DHT22;8120;48.308;8.914;2023-04-25T05:06:51;5.00;83.80
16032;DHT22;8120;48.308;8.914;2023-04-25T05:09:19;5.00;84.00
16032;DHT22;8120;48.308;8.914;2023-04-25T05:11:47;4.90;84.40
16032;DHT22;8120;48.308;8.914;2023-04-25T05:14:14;4.90;84.40
16032;DHT22;8120;48.308;8.914;2023-04-25T05:16:43;4.90;85.00
16032;DHT22;8120;48.308;8.914;2023-04-25T05:19:12;4.80;85.70
16032;DHT22;8120;48.308;8.914;2023-04-25T05:21:40;4.90;85.60
16032;DHT22;8120;48.308;8.914;2023-04-25T05:24:11;4.80;85.60
16032;DHT22;8120;48.308;8.914;2023-04-25T05:26:39;4.80;86.00
16032;DHT22;8120;48.308;8.914;2023-04-25T05:29:07;5.00;85.30
16032;DHT22;8120;48.308;8.914;2023-04-25T05:31:36;5.00;85.60
16032;DHT22;8120;48.308;8.914;2023-04-25T05:34:04;5.20;84.20
16032;DHT22;8120;48.308;8.914;2023-04-25T05:36:32;5.20;84.30
16032;DHT22;8120;48.308;8.914;2023-04-25T05:38:59;5.30;83.30
16032;DHT22;8120;48.308;8.914;2023-04-25T05:41:29;5.40;83.00
16032;DHT22;8120;48.308;8.914;2023-04-25T05:43:56;5.50;82.70
16032;DHT22;8120;48.308;8.914;2023-04-25T05:46:25;5.60;81.70
16032;DHT22;8120;48.308;8.914;2023-04-25T05:48:53;5.60;81.00
16032;DHT22;8120;48.308;8.914;2023-04-25T05:51:21;5.70;80.50
16032;DHT22;8120;48.308;8.914;2023-04-25T05:53:49;5.80;80.00
16032;DHT22;8120;48.308;8.914;2023-04-25T05:56:17;5.80;79.60
16032;DHT22;8120;48.308;8.914;2023-04-25T05:58:46;5.90;79.90
16032;DHT22;8120;48.308;8.914;2023-04-25T06:01:14;6.00;79.30
16032;DHT22;8120;48.308;8.914;2023-04-25T06:03:42;5.90;79.40
16032;DHT22;8120;48.308;8.914;2023-04-25T06:06:11;6.00;79.30
16032;DHT22;8120;48.308;8.914;2023-04-25T06:08:40;6.00;79.00
16032;DHT22;8120;48.308;8.914;2023-04-25T06:11:07;6.00;77.90
16032;DHT22;8120;48.308;8.914;2023-04-25T06:13:35;6.10;77.80
16032;DHT22;8120;48.308;8.914;2023-04-25T06:16:05;6.20;77.60
16032;DHT22;8120;48.308;8.914;2023-04-25T06:18:34;6.30;77.00
16032;DHT22;8120;48.308;8.914;2023-04-25T06:21:01;6.30;77.20
16032;DHT22;8120;48.308;8.914;2023-04-25T06:23:29;6.20;77.60
16032;DHT22;8120;48.308;8.914;2023-04-25T06:25:57;6.30;77.20
16032;DHT22;8120;48.308;8.914;2023-04-25T06:28:25;6.40;76.90
16032;DHT22;8120;48.308;8.914;2023-04-25T06:30:53;6.50;76.30
16032;DHT22;8120;48.308;8.914;2023-04-25T06:33:22;6.50;76.10
16032;DHT22;8120;48.308;8.914;2023-04-25T06:35:50;6.70;75.80
16032;DHT22;8120;48.308;8.914;2023-04-25T06:38:19;6.80;74.70
16032;DHT22;8120;48.308;8.914;2023-04-25T06:40:47;6.80;75.10
16032;DHT22;8120;48.308;8.914;2023-04-25T06:43:15;6.80;75.80
16032;DHT22;8120;48.308;8.914;2023-04-25T06:45:42;6.80;76.30
16032;DHT22;8120;48.308;8.914;2023-04-25T06:48:13;6.90;75.60
16032;DHT22;8120;48.308;8.914;2023-04-25T06:50:43;6.90;75.10
16032;DHT22;8120;48.308;8.914;2023-04-25T06:53:11;6.80;75.70
16032;DHT22;8120;48.308;8.914;2023-04-25T06:55:39;6.90;76.40
16032;DHT22;8120;48.308;8.914;2023-04-25T06:58:07;7.00;76.10
16032;DHT22;8120;48.308;8.914;2023-04-25T07:00:34;7.00;76.80
16032;DHT22;8120;48.308;8.914;2023-04-25T07:03:02;6.90;77.30
16032;DHT22;8120;48.308;8.914;2023-04-25T07:05:30;6.90;78.00
16032;DHT22;8120;48.308;8.914;2023-04-25T07:08:00;6.90;79.30
16032;DHT22;8120;48.308;8.914;2023-04-25T07:10:28;6.90;79.80
16032;DHT22;8120;48.308;8.914;2023-04-25T07:12:56;6.80;79.60
16032;DHT22;8120;48.308;8.914;2023-04-25T07:15:24;6.70;79.00
16032;DHT22;8120;48.308;8.914;2023-04-25T07:17:52;6.70;80.80
16032;DHT22;8120;48.308;8.914;2023-04-25T07:20:20;6.50;80.80
16032;DHT22;8120;48.308;8.914;2023-04-25T07:22:48;6.50;81.60
16032;DHT22;8120;48.308;8.914;2023-04-25T07:25:18;6.60;80.50
16032;DHT22;8120;48.308;8.914;2023-04-25T07:27:45;6.80;80.50
16032;DHT22;8120;48.308;8.914;2023-04-25T07:30:14;6.90;79.30
16032;DHT22;8120;48.308;8.914;2023-04-25T07:32:42;6.90;78.80
16032;DHT22;8120;48.308;8.914;2023-04-25T07:35:09;7.10;77.90
16032;DHT22;8120;48.308;8.914;2023-04-25T07:37:37;7.30;78.80
16032;DHT22;8120;48.308;8.914;2023-04-25T07:40:06;7.40;78.00
16032;DHT22;8120;48.308;8.914;2023-04-25T07:42:37;7.40;77.10
16032;DHT22;8120;48.308;8.914;2023-04-25T07:45:06;7.30;78.30
16032;DHT22;8120;48.308;8.914;2023-04-25T07:47:34;7.40;78.30
16032;DHT22;8120;48.308;8.914;2023-04-25T07:50:02;7.40;76.10
16032;DHT22;8120;48.308;8.914;2023-04-25T07:52:30;7.40;78.50
16032;DHT22;8120;48.308;8.914;2023-04-25T07:54:58;7.30;78.00
16032;DHT22;8120;48.308;8.914;2023-04-25T07:57:27;7.40;79.50
16032;DHT22;8120;48.308;8.914;2023-04-25T07:59:56;7.30;79.30
16032;DHT22;8120;48.308;8.914;2023-04-25T08:02:24;7.30;80.50
16032;DHT22;8120;48.308;8.914;2023-04-25T08:04:54;7.20;81.60
16032;DHT22;8120;48.308;8.914;2023-04-25T08:07:23;7.00;79.90
16032;DHT22;8120;48.308;8.914;2023-04-25T08:09:51;6.80;82.90
16032;DHT22;8120;48.308;8.914;2023-04-25T08:12:19;6.50;84.90
16032;DHT22;8120;48.308;8.914;2023-04-25T08:14:49;6.00;85.90
16032;DHT22;8120;48.308;8.914;2023-04-25T08:17:18;5.50;89.50
16032;DHT22;8120;48.308;8.914;2023-04-25T08:19:46;5.40;92.00
16032;DHT22;8120;48.308;8.914;2023-04-25T08:22:14;5.30;93.20
16032;DHT22;8120;48.308;8.914;2023-04-25T08:24:42;5.30;94.50
16032;DHT22;8120;48.308;8.914;2023-04-25T08:27:10;5.20;95.50
16032;DHT22;8120;48.308;8.914;2023-04-25T08:29:38;5.10;94.80
16032;DHT22;8120;48.308;8.914;2023-04-25T08:32:06;4.70;91.60
16032;DHT22;8120;48.308;8.914;2023-04-25T08:34:36;4.60;92.00
16032;DHT22;8120;48.308;8.914;2023-04-25T08:37:06;4.40;92.20
16032;DHT22;8120;48.308;8.914;2023-04-25T08:39:34;4.20;91.50
16032;DHT22;8120;48.308;8.914;2023-04-25T08:42:05;4.00;91.80
16032;DHT22;8120;48.308;8.914;2023-04-25T08:44:34;3.90;91.80
16032;DHT22;8120;48.308;8.914;2023-04-25T08:47:03;3.90;92.20
16032;DHT22;8120;48.308;8.914;2023-04-25T08:49:32;3.80;92.30
16032;DHT22;8120;48.308;8.914;2023-04-25T08:52:03;3.70;91.80
16032;DHT22;8120;48.308;8.914;2023-04-25T08:54:33;3.70;92.40
16032;DHT22;8120;48.308;8.914;2023-04-25T08:57:05;3.60;93.50
16032;DHT22;8120;48.308;8.914;2023-04-25T08:59:34;3.60;93.50
16032;DHT22;8120;48.308;8.914;2023-04-25T09:02:04;3.60;94.20
16032;DHT22;8120;48.308;8.914;2023-04-25T09:04:32;3.50;94.20
16032;DHT22;8120;48.308;8.914;2023-04-25T09:07:02;3.40;92.00
16032;DHT22;8120;48.308;8.914;2023-04-25T09:09:30;3.20;92.10
16032;DHT22;8120;48.308;8.914;2023-04-25T09:11:58;3.10;92.50
16032;DHT22;8120;48.308;8.914;2023-04-25T09:14:28;2.90;92.60
16032;DHT22;8120;48.308;8.914;2023-04-25T09:17:00;2.90;92.50
16032;DHT22;8120;48.308;8.914;2023-04-25T09:19:30;2.90;92.10
16032;DHT22;8120;48.308;8.914;2023-04-25T09:22:04;2.80;92.90
16032;DHT22;8120;48.308;8.914;2023-04-25T09:24:34;2.80;92.60
16032;DHT22;8120;48.308;8.914;2023-04-25T09:27:04;2.60;91.70
16032;DHT22;8120;48.308;8.914;2023-04-25T09:29:33;2.50;92.50
16032;DHT22;8120;48.308;8.914;2023-04-25T09:32:23;2.30;92.30
16032;DHT22;8120;48.308;8.914;2023-04-25T09:34:52;2.20;91.90
16032;DHT22;8120;48.308;8.914;2023-04-25T09:37:23;2.10;92.70
16032;DHT22;8120;48.308;8.914;2023-04-25T09:39:53;2.00;92.30
16032;DHT22;8120;48.308;8.914;2023-04-25T09:42:22;2.10;93.40
16032;DHT22;8120;48.308;8.914;2023-04-25T09:44:52;2.00;92.80
16032;DHT22;8120;48.308;8.914;2023-04-25T09:47:21;2.00;93.40
16032;DHT22;8120;48.308;8.914;2023-04-25T09:49:51;2.00;93.60
16032;DHT22;8120;48.308;8.914;2023-04-25T09:52:21;1.80;93.30
16032;DHT22;8120;48.308;8.914;2023-04-25T09:54:52;2.00;94.90
16032;DHT22;8120;48.308;8.914;2023-04-25T09:57:21;2.10;94.20
16032;DHT22;8120;48.308;8.914;2023-04-25T09:59:50;2.20;93.40
16032;DHT22;8120;48.308;8.914;2023-04-25T10:02:21;2.40;94.60
16032;DHT22;8120;48.308;8.914;2023-04-25T10:04:51;2.40;93.30
16032;DHT22;8120;48.308;8.914;2023-04-25T10:07:24;2.30;92.60
16032;DHT22;8120;48.308;8.914;2023-04-25T10:09:58;2.30;92.90
16032;DHT22;8120;48.308;8.914;2023-04-25T10:12:27;2.00;94.00
16032;DHT22;8120;48.308;8.914;2023-04-25T10:14:55;2.00;93.50
16032;DHT22;8120;48.308;8.914;2023-04-25T10:17:26;1.90;92.90
16032;DHT22;8120;48.308;8.914;2023-04-25T10:19:55;1.70;93.40
16032;DHT22;8120;48.308;8.914;2023-04-25T10:22:29;1.60;94.00
16032;DHT22;8120;48.308;8.914;2023-04-25T10:24:57;1.40;94.60
16032;DHT22;8120;48.308;8.914;2023-04-25T10:27:27;1.60;96.30
16032;DHT22;8120;48.308;8.914;2023-04-25T10:30:01;1.80;95.80
16032;DHT22;8120;48.308;8.914;2023-04-25T10:32:31;1.90;96.20
16032;DHT22;8120;48.308;8.914;2023-04-25T10:35:10;2.30;96.20
16032;DHT22;8120;48.308;8.914;2023-04-25T10:37:56;2.70;92.90
16032;DHT22;8120;48.308;8.914;2023-04-25T10:40:24;2.90;90.90
16032;DHT22;8120;48.308;8.914;2023-04-25T10:42:53;3.00;90.50
16032;DHT22;8120;48.308;8.914;2023-04-25T10:45:21;3.40;90.30
16032;DHT22;8120;48.308;8.914;2023-04-25T10:47:49;3.80;89.20
16032;DHT22;8120;48.308;8.914;2023-04-25T10:50:17;4.10;86.40
16032;DHT22;8120;48.308;8.914;2023-04-25T10:52:46;4.40;85.20
16032;DHT22;8120;48.308;8.914;2023-04-25T10:55:14;4.70;85.30
16032;DHT22;8120;48.308;8.914;2023-04-25T10:57:44;4.90;84.30
16032;DHT22;8120;48.308;8.914;2023-04-25T11:00:15;5.40;83.50
16032;DHT22;8120;48.308;8.914;2023-04-25T11:02:45;5.60;79.90
16032;DHT22;8120;48.308;8.914;2023-04-25T11:05:22;5.60;81.40
16032;DHT22;8120;48.308;8.914;2023-04-25T11:07:53;5.90;81.70
16032;DHT22;8120;48.308;8.914;2023-04-25T11:10:33;6.10;79.80
16032;DHT22;8120;48.308;8.914;2023-04-25T11:13:02;5.60;79.70
16032;DHT22;8120;48.308;8.914;2023-04-25T11:15:30;5.30;79.80
16032;DHT22;8120;48.308;8.914;2023-04-25T11:17:58;5.20;84.20
16032;DHT22;8120;48.308;8.914;2023-04-25T11:20:26;5.70;81.60
16032;DHT22;8120;48.308;8.914;2023-04-25T11:22:58;6.00;82.60
16032;DHT22;8120;48.308;8.914;2023-04-25T11:25:28;5.80;80.70
16032;DHT22;8120;48.308;8.914;2023-04-25T11:27:58;5.90;82.10
16032;DHT22;8120;48.308;8.914;2023-04-25T11:30:28;5.80;79.60
16032;DHT22;8120;48.308;8.914;2023-04-25T11:32:57;5.60;79.80
16032;DHT22;8120;48.308;8.914;2023-04-25T11:35:25;5.30;85.10
16032;DHT22;8120;48.308;8.914;2023-04-25T11:37:53;5.70;83.80
16032;DHT22;8120;48.308;8.914;2023-04-25T11:40:22;5.70;82.00
16032;DHT22;8120;48.308;8.914;2023-04-25T11:42:50;6.00;82.30
16032;DHT22;8120;48.308;8.914;2023-04-25T11:45:38;5.90;82.20
16032;DHT22;8120;48.308;8.914;2023-04-25T11:48:06;5.90;83.30
16032;DHT22;8120;48.308;8.914;2023-04-25T11:50:34;6.20;80.10
16032;DHT22;8120;48.308;8.914;2023-04-25T11:53:02;6.20;83.80
16032;DHT22;8120;48.308;8.914;2023-04-25T11:55:31;6.50;81.60
16032;DHT22;8120;48.308;8.914;2023-04-25T11:58:00;6.70;84.80
16032;DHT22;8120;48.308;8.914;2023-04-25T12:00:28;7.10;82.10
16032;DHT22;8120;48.308;8.914;2023-04-25T12:02:57;7.30;80.40
16032;DHT22;8120;48.308;8.914;2023-04-25T12:05:27;7.70;77.80
16032;DHT22;8120;48.308;8.914;2023-04-25T12:08:10;7.70;80.90
16032;DHT22;8120;48.308;8.914;2023-04-25T12:10:42;8.30;75.40
16032;DHT22;8120;48.308;8.914;2023-04-25T12:13:23;7.90;75.00
16032;DHT22;8120;48.308;8.914;2023-04-25T12:15:54;7.70;77.60
16032;DHT22;8120;48.308;8.914;2023-04-25T12:18:24;7.60;76.40
16032;DHT22;8120;48.308;8.914;2023-04-25T12:20:52;7.90;77.50
16032;DHT22;8120;48.308;8.914;2023-04-25T12:23:25;8.10;76.50
16032;DHT22;8120;48.308;8.914;2023-04-25T12:25:55;8.40;76.10
16032;DHT22;8120;48.308;8.914;2023-04-25T12:28:25;7.90;76.90
16032;DHT22;8120;48.308;8.914;2023-04-25T12:30:58;7.70;78.00
16032;DHT22;8120;48.308;8.914;2023-04-25T12:33:29;7.30;76.70
16032;DHT22;8120;48.308;8.914;2023-04-25T12:35:57;7.20;82.30
16032;DHT22;8120;48.308;8.914;2023-04-25T12:38:26;7.20;81.40
16032;DHT22;8120;48.308;8.914;2023-04-25T12:40:57;7.30;81.70
16032;DHT22;8120;48.308;8.914;2023-04-25T12:43:26;7.50;84.30
16032;DHT22;8120;48.308;8.914;2023-04-25T12:45:54;7.80;82.60
16032;DHT22;8120;48.308;8.914;2023-04-25T12:48:23;8.60;81.00
16032;DHT22;8120;48.308;8.914;2023-04-25T12:50:51;9.10;77.40
16032;DHT22;8120;48.308;8.914;2023-04-25T12:53:20;9.20;73.20
16032;DHT22;8120;48.308;8.914;2023-04-25T12:55:49;8.70;76.00
16032;DHT22;8120;48.308;8.914;2023-04-25T12:58:19;8.60;75.50
16032;DHT22;8120;48.308;8.914;2023-04-25T13:00:47;8.70;75.60
16032;DHT22;8120;48.308;8.914;2023-04-25T13:03:15;8.40;76.90
16032;DHT22;8120;48.308;8.914;2023-04-25T13:05:43;8.00;76.80
16032;DHT22;8120;48.308;8.914;2023-04-25T13:08:12;7.90;80.80
16032;DHT22;8120;48.308;8.914;2023-04-25T13:10:40;7.90;79.00
16032;DHT22;8120;48.308;8.914;2023-04-25T13:13:08;7.60;78.50
16032;DHT22;8120;48.308;8.914;2023-04-25T13:15:37;7.20;81.90
16032;DHT22;8120;48.308;8.914;2023-04-25T13:18:05;7.10;82.00
16032;DHT22;8120;48.308;8.914;2023-04-25T13:20:33;7.20;81.50
16032;DHT22;8120;48.308;8.914;2023-04-25T13:23:01;7.10;82.40
16032;DHT22;8120;48.308;8.914;2023-04-25T13:25:29;7.00;81.40
16032;DHT22;8120;48.308;8.914;2023-04-25T13:27:57;6.80;82.10
16032;DHT22;8120;48.308;8.914;2023-04-25T13:30:25;6.70;85.00
16032;DHT22;8120;48.308;8.914;2023-04-25T13:32:54;6.50;85.80
16032;DHT22;8120;48.308;8.914;2023-04-25T13:35:23;6.30;85.00
16032;DHT22;8120;48.308;8.914;2023-04-25T13:37:52;6.10;86.60
16032;DHT22;8120;48.308;8.914;2023-04-25T13:40:20;5.60;88.30
16032;DHT22;8120;48.308;8.914;2023-04-25T13:42:50;5.30;90.30
16032;DHT22;8120;48.308;8.914;2023-04-25T13:45:18;5.10;91.90
16032;DHT22;8120;48.308;8.914;2023-04-25T13:47:46;5.20;94.20
16032;DHT22;8120;48.308;8.914;2023-04-25T13:50:16;5.50;95.80
16032;DHT22;8120;48.308;8.914;2023-04-25T13:52:44;5.50;95.20
16032;DHT22;8120;48.308;8.914;2023-04-25T13:55:12;5.50;94.70
16032;DHT22;8120;48.308;8.914;2023-04-25T13:57:39;5.60;93.10
16032;DHT22;8120;48.308;8.914;2023-04-25T14:00:08;5.60;92.60
16032;DHT22;8120;48.308;8.914;2023-04-25T14:02:37;5.60;91.80
16032;DHT22;8120;48.308;8.914;2023-04-25T14:05:06;5.30;92.40
16032;DHT22;8120;48.308;8.914;2023-04-25T14:07:36;5.30;93.70
16032;DHT22;8120;48.308;8.914;2023-04-25T14:10:05;5.40;93.80
16032;DHT22;8120;48.308;8.914;2023-04-25T14:12:33;5.20;91.20
16032;DHT22;8120;48.308;8.914;2023-04-25T14:15:01;5.10;91.40
16032;DHT22;8120;48.308;8.914;2023-04-25T14:17:29;5.20;89.50
16032;DHT22;8120;48.308;8.914;2023-04-25T14:19:57;5.30;87.40
16032;DHT22;8120;48.308;8.914;2023-04-25T14:22:25;5.80;87.70
16032;DHT22;8120;48.308;8.914;2023-04-25T14:24:54;6.10;84.60
16032;DHT22;8120;48.308;8.914;2023-04-25T14:27:22;6.50;83.40
16032;DHT22;8120;48.308;8.914;2023-04-25T14:29:52;6.30;82.40
16032;DHT22;8120;48.308;8.914;2023-04-25T14:32:20;6.40;82.90
16032;DHT22;8120;48.308;8.914;2023-04-25T14:34:47;6.60;83.00
16032;DHT22;8120;48.308;8.914;2023-04-25T14:37:15;6.80;81.70
16032;DHT22;8120;48.308;8.914;2023-04-25T14:39:43;6.70;82.00
16032;DHT22;8120;48.308;8.914;2023-04-25T14:42:13;6.80;80.40
16032;DHT22;8120;48.308;8.914;2023-04-25T14:44:41;6.70;80.00
16032;DHT22;8120;48.308;8.914;2023-04-25T14:47:09;6.40;81.20
16032;DHT22;8120;48.308;8.914;2023-04-25T14:49:37;6.50;80.90
16032;DHT22;8120;48.308;8.914;2023-04-25T14:52:05;6.50;80.20
16032;DHT22;8120;48.308;8.914;2023-04-25T14:54:33;6.70;81.90
16032;DHT22;8120;48.308;8.914;2023-04-25T14:57:01;6.80;79.60
16032;DHT22;8120;48.308;8.914;2023-04-25T14:59:30;6.70;79.60
16032;DHT22;8120;48.308;8.914;2023-04-25T15:01:58;6.70;79.80
16032;DHT22;8120;48.308;8.914;2023-04-25T15:04:26;6.90;80.60
16032;DHT22;8120;48.308;8.914;2023-04-25T15:06:54;7.00;80.30
16032;DHT22;8120;48.308;8.914;2023-04-25T15:09:22;7.40;78.60
16032;DHT22;8120;48.308;8.914;2023-04-25T15:11:50;7.60;78.60
16032;DHT22;8120;48.308;8.914;2023-04-25T15:14:18;7.50;76.80
16032;DHT22;8120;48.308;8.914;2023-04-25T15:16:48;7.40;73.70
16032;DHT22;8120;48.308;8.914;2023-04-25T15:19:15;7.20;75.30
16032;DHT22;8120;48.308;8.914;2023-04-25T15:21:43;7.30;76.60
16032;DHT22;8120;48.308;8.914;2023-04-25T15:24:11;7.50;77.10
16032;DHT22;8120;48.308;8.914;2023-04-25T15:26:41;7.70;78.20
16032;DHT22;8120;48.308;8.914;2023-04-25T15:29:09;7.80;76.30
16032;DHT22;8120;48.308;8.914;2023-04-25T15:31:37;7.80;75.10
16032;DHT22;8120;48.308;8.914;2023-04-25T15:34:06;7.60;74.30
16032;DHT22;8120;48.308;8.914;2023-04-25T15:36:34;7.40;76.60
16032;DHT22;8120;48.308;8.914;2023-04-25T15:39:02;7.30;77.40
16032;DHT22;8120;48.308;8.914;2023-04-25T15:41:30;6.90;77.30
16032;DHT22;8120;48.308;8.914;2023-04-25T15:43:59;6.80;80.30
16032;DHT22;8120;48.308;8.914;2023-04-25T15:46:27;7.00;79.60
16032;DHT22;8120;48.308;8.914;2023-04-25T15:48:56;7.50;79.00
16032;DHT22;8120;48.308;8.914;2023-04-25T15:51:26;7.50;77.60
16032;DHT22;8120;48.308;8.914;2023-04-25T15:53:54;7.40;78.00
16032;DHT22;8120;48.308;8.914;2023-04-25T15:56:22;7.80;78.50
16032;DHT22;8120;48.308;8.914;2023-04-25T15:58:50;7.80;74.50
16032;DHT22;8120;48.308;8.914;2023-04-25T16:01:18;7.90;73.90
16032;DHT22;8120;48.308;8.914;2023-04-25T16:03:50;8.10;74.10
16032;DHT22;8120;48.308;8.914;2023-04-25T16:06:19;8.10;75.00
16032;DHT22;8120;48.308;8.914;2023-04-25T16:08:48;8.30;74.70
16032;DHT22;8120;48.308;8.914;2023-04-25T16:11:18;8.60;74.80
16032;DHT22;8120;48.308;8.914;2023-04-25T16:13:46;8.30;74.80